sensor_id;sensor_type;location;lat;lon;timestamp;pressure;altitude;pressure_sealevel;temperature
74043;BMP280;62384;53.600;10.040;2023-04-04T00:00:53;77644.28;;;1.99
74043;BMP280;62384;53.600;10.040;2023-04-04T00:03:18;77633.84;;;2.04
74043;BMP280;62384;53.600;10.040;2023-04-04T00:05:44;77597.16;;;1.88
74043;BMP280;62384;53.600;10.040;2023-04-04T00:08:09;77591.16;;;1.99
74043;BMP280;62384;53.600;10.040;2023-04-04T00:10:34;77643.69;;;1.99
74043;BMP280;62384;53.600;10.040;2023-04-04T00:13:00;77637.88;;;1.98
74043;BMP280;62384;53.600;10.040;2023-04-04T00:15:25;77619.75;;;1.96
74043;BMP280;62384;53.600;10.040;2023-04-04T00:17:51;77609.91;;;2.01
74043;BMP280;62384;53.600;10.040;2023-04-04T00:20:16;77589.94;;;1.93
74043;BMP280;62384;53.600;10.040;2023-04-04T00:22:42;77567.53;;;1.99
74043;BMP280;62384;53.600;10.040;2023-04-04T00:25:07;77582.06;;;1.93
74043;BMP280;62384;53.600;10.040;2023-04-04T00:27:33;77575.63;;;1.92
74043;BMP280;62384;53.600;10.040;2023-04-04T00:29:59;77583.84;;;1.95
74043;BMP280;62384;53.600;10.040;2023-04-04T00:32:24;77474.34;;;1.89
74043;BMP280;62384;53.600;10.040;2023-04-04T00:34:53;77496.03;;;1.74
74043;BMP280;62384;53.600;10.040;2023-04-04T00:37:18;77490.06;;;1.84
74043;BMP280;62384;53.600;10.040;2023-04-04T00:39:44;77501.75;;;1.85
74043;BMP280;62384;53.600;10.040;2023-04-04T00:42:09;77535.59;;;1.87
74043;BMP280;62384;53.600;10.040;2023-04-04T00:44:34;77468.09;;;1.77
74043;BMP280;62384;53.600;10.040;2023-04-04T00:47:00;77449.66;;;1.72
74043;BMP280;62384;53.600;10.040;2023-04-04T00:49:26;77451.22;;;1.80
74043;BMP280;62384;53.600;10.040;2023-04-04T00:51:51;77421.63;;;1.71
74043;BMP280;62384;53.600;10.040;2023-04-04T00:54:17;77414.78;;;1.58
74043;BMP280;62384;53.600;10.040;2023-04-04T00:56:42;77352.75;;;1.66
74043;BMP280;62384;53.600;10.040;2023-04-04T00:59:08;77493.28;;;1.85
74043;BMP280;62384;53.600;10.040;2023-04-04T01:01:34;77410.53;;;1.70
74043;BMP280;62384;53.600;10.040;2023-04-04T01:04:00;77354.50;;;1.67
74043;BMP280;62384;53.600;10.040;2023-04-04T01:06:26;77360.97;;;1.73
74043;BMP280;62384;53.600;10.040;2023-04-04T01:08:54;77355.72;;;1.73
74043;BMP280;62384;53.600;10.040;2023-04-04T01:11:20;77345.19;;;1.68
74043;BMP280;62384;53.600;10.040;2023-04-04T01:13:46;77297.03;;;1.65
74043;BMP280;62384;53.600;10.040;2023-04-04T01:16:12;77271.94;;;1.62
74043;BMP280;62384;53.600;10.040;2023-04-04T01:18:39;77242.75;;;1.59
74043;BMP280;62384;53.600;10.040;2023-04-04T01:21:08;77228.16;;;1.60
74043;BMP280;62384;53.600;10.040;2023-04-04T01:24:00;77161.41;;;1.59
74043;BMP280;62384;53.600;10.040;2023-04-04T01:26:26;77239.84;;;1.61
74043;BMP280;62384;53.600;10.040;2023-04-04T01:28:53;77189.34;;;1.56
74043;BMP280;62384;53.600;10.040;2023-04-04T01:31:22;77113.00;;;1.58
74043;BMP280;62384;53.600;10.040;2023-04-04T01:33:53;77084.66;;;1.54
74043;BMP280;62384;53.600;10.040;2023-04-04T01:36:27;77013.22;;;1.49
74043;BMP280;62384;53.600;10.040;2023-04-04T01:38:58;77131.91;;;1.54
74043;BMP280;62384;53.600;10.040;2023-04-04T01:41:27;77156.97;;;1.53
74043;BMP280;62384;53.600;10.040;2023-04-04T01:43:54;77115.22;;;1.46
74043;BMP280;62384;53.600;10.040;2023-04-04T01:46:21;77061.59;;;1.45
74043;BMP280;62384;53.600;10.040;2023-04-04T01:48:46;76925.75;;;1.46
74043;BMP280;62384;53.600;10.040;2023-04-04T01:51:12;76922.56;;;1.50
74043;BMP280;62384;53.600;10.040;2023-04-04T01:53:38;77049.63;;;1.46
74043;BMP280;62384;53.600;10.040;2023-04-04T01:56:04;76984.41;;;1.58
74043;BMP280;62384;53.600;10.040;2023-04-04T01:58:29;77078.31;;;1.62
74043;BMP280;62384;53.600;10.040;2023-04-04T02:00:55;77126.16;;;1.67
74043;BMP280;62384;53.600;10.040;2023-04-04T02:03:21;77075.69;;;1.62
74043;BMP280;62384;53.600;10.040;2023-04-04T02:05:46;77073.31;;;1.55
74043;BMP280;62384;53.600;10.040;2023-04-04T02:08:12;77080.94;;;1.62
74043;BMP280;62384;53.600;10.040;2023-04-04T02:10:39;77164.34;;;1.66
74043;BMP280;62384;53.600;10.040;2023-04-04T02:13:04;77237.59;;;1.68
74043;BMP280;62384;53.600;10.040;2023-04-04T02:15:32;77135.81;;;1.69
74043;BMP280;62384;53.600;10.040;2023-04-04T02:17:58;77167.25;;;1.64
74043;BMP280;62384;53.600;10.040;2023-04-04T02:20:23;77058.78;;;1.61
74043;BMP280;62384;53.600;10.040;2023-04-04T02:22:50;77189.75;;;1.68
74043;BMP280;62384;53.600;10.040;2023-04-04T02:25:16;77125.81;;;1.55
74043;BMP280;62384;53.600;10.040;2023-04-04T02:27:41;77101.84;;;1.53
74043;BMP280;62384;53.600;10.040;2023-04-04T02:30:07;77031.31;;;1.51
74043;BMP280;62384;53.600;10.040;2023-04-04T02:32:33;77028.38;;;1.53
74043;BMP280;62384;53.600;10.040;2023-04-04T02:34:58;76946.22;;;1.59
74043;BMP280;62384;53.600;10.040;2023-04-04T02:37:23;77063.13;;;1.58
74043;BMP280;62384;53.600;10.040;2023-04-04T02:39:48;76807.97;;;1.35
74043;BMP280;62384;53.600;10.040;2023-04-04T02:42:14;76839.22;;;1.64
74043;BMP280;62384;53.600;10.040;2023-04-04T02:44:39;76964.28;;;1.56
74043;BMP280;62384;53.600;10.040;2023-04-04T02:47:05;76990.50;;;1.56
74043;BMP280;62384;53.600;10.040;2023-04-04T02:49:31;76933.09;;;1.59
74043;BMP280;62384;53.600;10.040;2023-04-04T02:51:56;77004.84;;;1.62
74043;BMP280;62384;53.600;10.040;2023-04-04T02:54:21;77002.47;;;1.55
74043;BMP280;62384;53.600;10.040;2023-04-04T02:56:47;76972.44;;;1.54
74043;BMP280;62384;53.600;10.040;2023-04-04T02:59:12;76860.50;;;1.57
74043;BMP280;62384;53.600;10.040;2023-04-04T03:01:37;77055.31;;;1.67
74043;BMP280;62384;53.600;10.040;2023-04-04T03:04:03;77106.63;;;1.66
74043;BMP280;62384;53.600;10.040;2023-04-04T03:06:32;77119.97;;;1.55
74043;BMP280;62384;53.600;10.040;2023-04-04T03:08:57;77092.63;;;1.68
74043;BMP280;62384;53.600;10.040;2023-04-04T03:11:23;77087.09;;;1.65
74043;BMP280;62384;53.600;10.040;2023-04-04T03:13:48;76986.47;;;1.67
74043;BMP280;62384;53.600;10.040;2023-04-04T03:16:15;77116.53;;;1.66
74043;BMP280;62384;53.600;10.040;2023-04-04T03:18:42;76999.91;;;1.65
74043;BMP280;62384;53.600;10.040;2023-04-04T03:21:07;76779.44;;;1.51
74043;BMP280;62384;53.600;10.040;2023-04-04T03:23:33;76704.50;;;1.43
74043;BMP280;62384;53.600;10.040;2023-04-04T03:25:58;76616.78;;;1.37
74043;BMP280;62384;53.600;10.040;2023-04-04T03:28:23;76660.78;;;1.41
74043;BMP280;62384;53.600;10.040;2023-04-04T03:30:48;76600.19;;;1.39
74043;BMP280;62384;53.600;10.040;2023-04-04T03:33:14;76568.69;;;1.43
74043;BMP280;62384;53.600;10.040;2023-04-04T03:35:40;76549.75;;;1.43
74043;BMP280;62384;53.600;10.040;2023-04-04T03:38:08;76602.19;;;1.43
74043;BMP280;62384;53.600;10.040;2023-04-04T03:40:35;76572.75;;;1.47
74043;BMP280;62384;53.600;10.040;2023-04-04T03:43:01;76521.75;;;1.50
74043;BMP280;62384;53.600;10.040;2023-04-04T03:45:32;76540.13;;;1.46
74043;BMP280;62384;53.600;10.040;2023-04-04T03:47:58;76500.22;;;1.36
74043;BMP280;62384;53.600;10.040;2023-04-04T03:50:23;76529.06;;;1.41
74043;BMP280;62384;53.600;10.040;2023-04-04T03:52:48;76525.84;;;1.40
74043;BMP280;62384;53.600;10.040;2023-04-04T03:55:14;76429.72;;;1.34
74043;BMP280;62384;53.600;10.040;2023-04-04T03:57:39;76471.09;;;1.34
74043;BMP280;62384;53.600;10.040;2023-04-04T04:00:05;76569.84;;;1.44
74043;BMP280;62384;53.600;10.040;2023-04-04T04:02:30;76602.78;;;1.43
74043;BMP280;62384;53.600;10.040;2023-04-04T04:04:56;76649.72;;;1.36
74043;BMP280;62384;53.600;10.040;2023-04-04T04:07:21;76621.16;;;1.34
74043;BMP280;62384;53.600;10.040;2023-04-04T04:09:46;76613.84;;;1.39
74043;BMP280;62384;53.600;10.040;2023-04-04T04:12:11;76631.34;;;1.41
74043;BMP280;62384;53.600;10.040;2023-04-04T04:14:37;76561.72;;;1.33
74043;BMP280;62384;53.600;10.040;2023-04-04T04:17:02;76654.38;;;1.45
74043;BMP280;62384;53.600;10.040;2023-04-04T04:19:28;76636.31;;;1.43
74043;BMP280;62384;53.600;10.040;2023-04-04T04:21:54;76798.09;;;1.49
74043;BMP280;62384;53.600;10.040;2023-04-04T04:24:19;76705.38;;;1.46
74043;BMP280;62384;53.600;10.040;2023-04-04T04:26:45;76643.59;;;1.38
74043;BMP280;62384;53.600;10.040;2023-04-04T04:29:10;76468.75;;;1.41
74043;BMP280;62384;53.600;10.040;2023-04-04T04:31:36;76728.72;;;1.48
74043;BMP280;62384;53.600;10.040;2023-04-04T04:34:04;76543.63;;;1.40
74043;BMP280;62384;53.600;10.040;2023-04-04T04:36:30;76488.56;;;1.35
74043;BMP280;62384;53.600;10.040;2023-04-04T04:38:55;76669.25;;;1.42
74043;BMP280;62384;53.600;10.040;2023-04-04T04:41:21;76674.47;;;1.37
74043;BMP280;62384;53.600;10.040;2023-04-04T04:43:46;76574.22;;;1.37
74043;BMP280;62384;53.600;10.040;2023-04-04T04:46:11;76527.91;;;1.35
74043;BMP280;62384;53.600;10.040;2023-04-04T04:48:37;76456.53;;;1.35
74043;BMP280;62384;53.600;10.040;2023-04-04T04:51:02;76591.13;;;1.33
74043;BMP280;62384;53.600;10.040;2023-04-04T04:53:28;76529.94;;;1.35
74043;BMP280;62384;53.600;10.040;2023-04-04T04:55:53;76467.94;;;1.29
74043;BMP280;62384;53.600;10.040;2023-04-04T04:58:18;76230.44;;;1.30
74043;BMP280;62384;53.600;10.040;2023-04-04T05:00:48;76405.78;;;1.36
74043;BMP280;62384;53.600;10.040;2023-04-04T05:03:13;76581.53;;;1.41
74043;BMP280;62384;53.600;10.040;2023-04-04T05:05:38;76304.41;;;1.35
74043;BMP280;62384;53.600;10.040;2023-04-04T05:08:06;76461.72;;;1.39
74043;BMP280;62384;53.600;10.040;2023-04-04T05:10:32;76250.72;;;1.47
74043;BMP280;62384;53.600;10.040;2023-04-04T05:12:57;76639.50;;;1.48
74043;BMP280;62384;53.600;10.040;2023-04-04T05:15:22;76577.16;;;1.44
74043;BMP280;62384;53.600;10.040;2023-04-04T05:17:49;76586.19;;;1.40
74043;BMP280;62384;53.600;10.040;2023-04-04T05:20:15;76416.00;;;1.38
74043;BMP280;62384;53.600;10.040;2023-04-04T05:22:42;76374.66;;;1.30
74043;BMP280;62384;53.600;10.040;2023-04-04T05:25:11;76480.09;;;1.44
74043;BMP280;62384;53.600;10.040;2023-04-04T05:27:38;76365.31;;;1.35
74043;BMP280;62384;53.600;10.040;2023-04-04T05:30:06;76434.63;;;1.45
74043;BMP280;62384;53.600;10.040;2023-04-04T05:32:34;76464.94;;;1.40
74043;BMP280;62384;53.600;10.040;2023-04-04T05:35:00;76472.53;;;1.37
74043;BMP280;62384;53.600;10.040;2023-04-04T05:37:25;76309.91;;;1.42
74043;BMP280;62384;53.600;10.040;2023-04-04T05:39:51;76524.66;;;1.53
74043;BMP280;62384;53.600;10.040;2023-04-04T05:42:17;76561.94;;;1.63
74043;BMP280;62384;53.600;10.040;2023-04-04T05:44:42;76745.06;;;1.62
74043;BMP280;62384;53.600;10.040;2023-04-04T05:47:10;76658.47;;;1.62
74043;BMP280;62384;53.600;10.040;2023-04-04T05:49:35;76676.25;;;1.62
74043;BMP280;62384;53.600;10.040;2023-04-04T05:52:01;76703.63;;;1.63
74043;BMP280;62384;53.600;10.040;2023-04-04T05:54:27;76674.50;;;1.74
74043;BMP280;62384;53.600;10.040;2023-04-04T05:56:52;76860.84;;;1.78
74043;BMP280;62384;53.600;10.040;2023-04-04T05:59:20;77089.53;;;1.85
74043;BMP280;62384;53.600;10.040;2023-04-04T06:01:46;77039.66;;;1.90
74043;BMP280;62384;53.600;10.040;2023-04-04T06:04:11;77044.66;;;1.96
74043;BMP280;62384;53.600;10.040;2023-04-04T06:06:37;77046.16;;;2.04
74043;BMP280;62384;53.600;10.040;2023-04-04T06:09:03;77016.97;;;2.02
74043;BMP280;62384;53.600;10.040;2023-04-04T06:11:31;77334.84;;;2.15
74043;BMP280;62384;53.600;10.040;2023-04-04T06:13:58;76991.94;;;2.21
74043;BMP280;62384;53.600;10.040;2023-04-04T06:16:23;77541.16;;;2.39
74043;BMP280;62384;53.600;10.040;2023-04-04T06:18:49;77616.78;;;2.39
74043;BMP280;62384;53.600;10.040;2023-04-04T06:21:14;77881.13;;;2.58
74043;BMP280;62384;53.600;10.040;2023-04-04T06:23:41;77625.41;;;2.48
74043;BMP280;62384;53.600;10.040;2023-04-04T06:26:06;77559.09;;;2.48
74043;BMP280;62384;53.600;10.040;2023-04-04T06:28:33;77613.03;;;2.42
74043;BMP280;62384;53.600;10.040;2023-04-04T06:30:58;77714.09;;;2.43
74043;BMP280;62384;53.600;10.040;2023-04-04T06:33:24;77859.66;;;2.51
74043;BMP280;62384;53.600;10.040;2023-04-04T06:35:49;77902.06;;;2.53
74043;BMP280;62384;53.600;10.040;2023-04-04T06:38:15;78285.31;;;2.80
74043;BMP280;62384;53.600;10.040;2023-04-04T06:40:41;78477.22;;;2.86
74043;BMP280;62384;53.600;10.040;2023-04-04T06:43:06;78454.97;;;2.85
74043;BMP280;62384;53.600;10.040;2023-04-04T06:45:33;78532.72;;;2.84
74043;BMP280;62384;53.600;10.040;2023-04-04T06:48:00;78653.16;;;2.95
74043;BMP280;62384;53.600;10.040;2023-04-04T06:50:28;78721.06;;;2.99
74043;BMP280;62384;53.600;10.040;2023-04-04T06:52:54;78675.50;;;3.00
74043;BMP280;62384;53.600;10.040;2023-04-04T06:55:20;78811.44;;;3.08
74043;BMP280;62384;53.600;10.040;2023-04-04T06:57:45;78993.81;;;3.13
74043;BMP280;62384;53.600;10.040;2023-04-04T07:00:11;79196.34;;;3.33
74043;BMP280;62384;53.600;10.040;2023-04-04T07:02:37;79419.22;;;3.30
74043;BMP280;62384;53.600;10.040;2023-04-04T07:08:24;79490.41;;;3.54
74043;BMP280;62384;53.600;10.040;2023-04-04T07:10:51;79502.94;;;3.60
74043;BMP280;62384;53.600;10.040;2023-04-04T07:13:16;79566.75;;;3.67
74043;BMP280;62384;53.600;10.040;2023-04-04T07:15:46;79676.78;;;3.73
74043;BMP280;62384;53.600;10.040;2023-04-04T07:18:17;79739.03;;;3.83
74043;BMP280;62384;53.600;10.040;2023-04-04T07:20:45;79849.50;;;3.99
74043;BMP280;62384;53.600;10.040;2023-04-04T07:23:10;79989.09;;;4.07
74043;BMP280;62384;53.600;10.040;2023-04-04T07:25:37;80053.22;;;4.19
74043;BMP280;62384;53.600;10.040;2023-04-04T07:28:02;79904.09;;;4.13
74043;BMP280;62384;53.600;10.040;2023-04-04T07:30:28;79937.75;;;4.26
74043;BMP280;62384;53.600;10.040;2023-04-04T07:32:57;79857.00;;;4.22
74043;BMP280;62384;53.600;10.040;2023-04-04T07:35:23;79808.09;;;4.17
74043;BMP280;62384;53.600;10.040;2023-04-04T07:37:48;79703.84;;;4.11
74043;BMP280;62384;53.600;10.040;2023-04-04T07:40:15;79810.06;;;4.36
74043;BMP280;62384;53.600;10.040;2023-04-04T07:42:45;79931.44;;;4.49
74043;BMP280;62384;53.600;10.040;2023-04-04T07:45:12;80074.75;;;4.74
74043;BMP280;62384;53.600;10.040;2023-04-04T07:47:42;80218.00;;;4.87
74043;BMP280;62384;53.600;10.040;2023-04-04T07:50:08;80188.53;;;4.91
74043;BMP280;62384;53.600;10.040;2023-04-04T07:52:33;80212.72;;;5.00
74043;BMP280;62384;53.600;10.040;2023-04-04T07:54:58;80356.25;;;5.19
74043;BMP280;62384;53.600;10.040;2023-04-04T07:57:25;80444.13;;;5.32
74043;BMP280;62384;53.600;10.040;2023-04-04T07:59:50;80465.50;;;5.43
74043;BMP280;62384;53.600;10.040;2023-04-04T08:02:15;80315.63;;;5.42
74043;BMP280;62384;53.600;10.040;2023-04-04T08:04:41;80758.06;;;5.53
74043;BMP280;62384;53.600;10.040;2023-04-04T08:07:06;80466.94;;;5.42
74043;BMP280;62384;53.600;10.040;2023-04-04T08:09:31;80677.88;;;5.48
74043;BMP280;62384;53.600;10.040;2023-04-04T08:12:00;80808.91;;;5.76
74043;BMP280;62384;53.600;10.040;2023-04-04T08:14:29;80812.50;;;5.94
74043;BMP280;62384;53.600;10.040;2023-04-04T08:16:55;80682.44;;;5.91
74043;BMP280;62384;53.600;10.040;2023-04-04T08:19:20;80903.88;;;6.14
74043;BMP280;62384;53.600;10.040;2023-04-04T08:21:46;81012.69;;;6.41
74043;BMP280;62384;53.600;10.040;2023-04-04T08:24:12;81236.81;;;6.59
74043;BMP280;62384;53.600;10.040;2023-04-04T08:26:37;81470.81;;;6.73
74043;BMP280;62384;53.600;10.040;2023-04-04T08:29:02;81500.66;;;7.04
74043;BMP280;62384;53.600;10.040;2023-04-04T08:31:28;81128.41;;;7.01
74043;BMP280;62384;53.600;10.040;2023-04-04T08:33:54;80973.88;;;6.80
74043;BMP280;62384;53.600;10.040;2023-04-04T08:36:19;80787.06;;;6.66
74043;BMP280;62384;53.600;10.040;2023-04-04T08:38:45;80788.91;;;6.61
74043;BMP280;62384;53.600;10.040;2023-04-04T08:41:11;80827.31;;;6.82
74043;BMP280;62384;53.600;10.040;2023-04-04T08:43:38;80795.94;;;6.85
74043;BMP280;62384;53.600;10.040;2023-04-04T08:46:06;81141.22;;;6.98
74043;BMP280;62384;53.600;10.040;2023-04-04T08:48:33;81534.03;;;7.39
74043;BMP280;62384;53.600;10.040;2023-04-04T08:50:59;81757.13;;;7.76
74043;BMP280;62384;53.600;10.040;2023-04-04T08:53:27;81613.84;;;7.68
74043;BMP280;62384;53.600;10.040;2023-04-04T08:55:54;81414.75;;;7.83
74043;BMP280;62384;53.600;10.040;2023-04-04T08:58:19;81363.53;;;7.69
74043;BMP280;62384;53.600;10.040;2023-04-04T09:00:45;81345.63;;;7.76
74043;BMP280;62384;53.600;10.040;2023-04-04T09:03:28;81441.69;;;7.85
74043;BMP280;62384;53.600;10.040;2023-04-04T09:05:55;82054.41;;;8.43
74043;BMP280;62384;53.600;10.040;2023-04-04T09:08:21;82117.31;;;8.70
74043;BMP280;62384;53.600;10.040;2023-04-04T09:10:49;82031.81;;;8.59
74043;BMP280;62384;53.600;10.040;2023-04-04T09:13:14;82253.06;;;8.94
74043;BMP280;62384;53.600;10.040;2023-04-04T09:15:44;81653.41;;;8.69
74043;BMP280;62384;53.600;10.040;2023-04-04T09:18:10;81533.13;;;8.68
74043;BMP280;62384;53.600;10.040;2023-04-04T09:20:39;81173.13;;;8.52
74043;BMP280;62384;53.600;10.040;2023-04-04T09:23:15;81077.41;;;8.39
74043;BMP280;62384;53.600;10.040;2023-04-04T09:28:14;81662.78;;;8.68
74043;BMP280;62384;53.600;10.040;2023-04-04T09:30:40;82006.66;;;9.05
74043;BMP280;62384;53.600;10.040;2023-04-04T09:33:13;81747.38;;;9.11
74043;BMP280;62384;53.600;10.040;2023-04-04T09:35:44;82054.66;;;9.51
74043;BMP280;62384;53.600;10.040;2023-04-04T09:38:10;81635.94;;;9.43
74043;BMP280;62384;53.600;10.040;2023-04-04T09:40:37;81841.41;;;9.83
74043;BMP280;62384;53.600;10.040;2023-04-04T09:43:07;82078.41;;;9.91
74043;BMP280;62384;53.600;10.040;2023-04-04T09:45:34;82008.69;;;9.89
74043;BMP280;62384;53.600;10.040;2023-04-04T09:48:00;82003.34;;;10.04
74043;BMP280;62384;53.600;10.040;2023-04-04T09:50:26;81623.19;;;9.87
74043;BMP280;62384;53.600;10.040;2023-04-04T09:52:59;81424.81;;;9.80
74043;BMP280;62384;53.600;10.040;2023-04-04T09:55:35;81662.69;;;10.06
74043;BMP280;62384;53.600;10.040;2023-04-04T09:58:25;82047.75;;;10.44
74043;BMP280;62384;53.600;10.040;2023-04-04T10:00:56;82606.19;;;11.29
74043;BMP280;62384;53.600;10.040;2023-04-04T10:03:23;83322.47;;;12.23
74043;BMP280;62384;53.600;10.040;2023-04-04T10:05:59;84799.06;;;13.36
74043;BMP280;62384;53.600;10.040;2023-04-04T10:08:26;85374.09;;;14.37
74043;BMP280;62384;53.600;10.040;2023-04-04T10:11:00;85481.31;;;14.95
74043;BMP280;62384;53.600;10.040;2023-04-04T10:13:29;85813.13;;;15.46
74043;BMP280;62384;53.600;10.040;2023-04-04T10:15:56;86547.56;;;16.49
74043;BMP280;62384;53.600;10.040;2023-04-04T10:18:26;85719.22;;;16.45
74043;BMP280;62384;53.600;10.040;2023-04-04T10:20:59;86283.22;;;17.10
74043;BMP280;62384;53.600;10.040;2023-04-04T10:23:25;84617.94;;;16.84
74043;BMP280;62384;53.600;10.040;2023-04-04T10:25:56;85477.81;;;17.93
74043;BMP280;62384;53.600;10.040;2023-04-04T10:28:22;85368.38;;;18.74
74043;BMP280;62384;53.600;10.040;2023-04-04T10:31:04;84311.19;;;18.19
74043;BMP280;62384;53.600;10.040;2023-04-04T10:33:43;83994.50;;;17.39
74043;BMP280;62384;53.600;10.040;2023-04-04T10:36:11;84221.84;;;17.89
74043;BMP280;62384;53.600;10.040;2023-04-04T10:38:44;84643.66;;;18.53
74043;BMP280;62384;53.600;10.040;2023-04-04T10:41:13;83389.94;;;18.04
74043;BMP280;62384;53.600;10.040;2023-04-04T10:43:46;77470.81;;;17.95
74043;BMP280;62384;53.600;10.040;2023-04-04T10:46:14;77376.47;;;17.11
74043;BMP280;62384;53.600;10.040;2023-04-04T10:48:40;77373.22;;;17.24
74043;BMP280;62384;53.600;10.040;2023-04-04T10:51:10;77464.66;;;17.78
74043;BMP280;62384;53.600;10.040;2023-04-04T10:53:37;77388.06;;;17.49
74043;BMP280;62384;53.600;10.040;2023-04-04T10:56:04;77312.44;;;16.90
74043;BMP280;62384;53.600;10.040;2023-04-04T10:58:31;77326.00;;;16.50
74043;BMP280;62384;53.600;10.040;2023-04-04T11:00:56;77290.84;;;16.55
74043;BMP280;62384;53.600;10.040;2023-04-04T11:03:21;77402.22;;;17.02
74043;BMP280;62384;53.600;10.040;2023-04-04T11:05:47;77489.09;;;17.87
74043;BMP280;62384;53.600;10.040;2023-04-04T11:08:22;77395.94;;;17.60
74043;BMP280;62384;53.600;10.040;2023-04-04T11:10:50;77403.44;;;17.60
74043;BMP280;62384;53.600;10.040;2023-04-04T11:13:25;77395.16;;;17.50
74043;BMP280;62384;53.600;10.040;2023-04-04T11:15:58;77361.50;;;17.33
74043;BMP280;62384;53.600;10.040;2023-04-04T11:20:56;77311.28;;;16.89
74043;BMP280;62384;53.600;10.040;2023-04-04T11:23:22;77385.16;;;17.53
74043;BMP280;62384;53.600;10.040;2023-04-04T11:25:51;77386.50;;;17.29
74043;BMP280;62384;53.600;10.040;2023-04-04T11:28:24;77327.09;;;17.19
74043;BMP280;62384;53.600;10.040;2023-04-04T11:34:04;77082.75;;;15.29
74043;BMP280;62384;53.600;10.040;2023-04-04T11:39:05;76923.38;;;14.07
74043;BMP280;62384;53.600;10.040;2023-04-04T11:44:41;76795.19;;;13.04
74043;BMP280;62384;53.600;10.040;2023-04-04T11:49:36;76713.59;;;12.28
74043;BMP280;62384;53.600;10.040;2023-04-04T11:52:09;76713.91;;;12.45
74043;BMP280;62384;53.600;10.040;2023-04-04T11:54:40;76716.13;;;12.33
74043;BMP280;62384;53.600;10.040;2023-04-04T11:57:16;76828.88;;;13.17
74043;BMP280;62384;53.600;10.040;2023-04-04T11:59:44;76800.75;;;13.07
74043;BMP280;62384;53.600;10.040;2023-04-04T12:02:12;76843.69;;;13.35
74043;BMP280;62384;53.600;10.040;2023-04-04T12:04:39;76815.50;;;13.10
74043;BMP280;62384;53.600;10.040;2023-04-04T12:07:08;76896.09;;;13.81
74043;BMP280;62384;53.600;10.040;2023-04-04T12:09:33;76862.03;;;13.37
74043;BMP280;62384;53.600;10.040;2023-04-04T12:11:59;76911.78;;;13.83
74043;BMP280;62384;53.600;10.040;2023-04-04T12:14:25;76909.50;;;13.81
74043;BMP280;62384;53.600;10.040;2023-04-04T12:16:55;76809.03;;;13.16
74043;BMP280;62384;53.600;10.040;2023-04-04T12:19:22;76877.47;;;13.62
74043;BMP280;62384;53.600;10.040;2023-04-04T12:21:48;76847.34;;;13.40
74043;BMP280;62384;53.600;10.040;2023-04-04T12:24:16;76736.88;;;12.51
74043;BMP280;62384;53.600;10.040;2023-04-04T12:26:44;76734.59;;;12.56
74043;BMP280;62384;53.600;10.040;2023-04-04T12:29:11;76780.84;;;12.66
74043;BMP280;62384;53.600;10.040;2023-04-04T12:31:38;76802.13;;;13.10
74043;BMP280;62384;53.600;10.040;2023-04-04T12:34:04;76744.69;;;12.55
74043;BMP280;62384;53.600;10.040;2023-04-04T12:36:30;76812.97;;;13.06
74043;BMP280;62384;53.600;10.040;2023-04-04T12:39:03;76899.56;;;13.84
74043;BMP280;62384;53.600;10.040;2023-04-04T12:41:29;76844.91;;;13.43
74043;BMP280;62384;53.600;10.040;2023-04-04T12:44:03;76827.16;;;13.16
74043;BMP280;62384;53.600;10.040;2023-04-04T12:46:36;76878.75;;;13.51
74043;BMP280;62384;53.600;10.040;2023-04-04T12:49:13;76880.00;;;13.73
74043;BMP280;62384;53.600;10.040;2023-04-04T12:51:39;76875.97;;;13.63
74043;BMP280;62384;53.600;10.040;2023-04-04T12:54:06;76851.06;;;13.53
74043;BMP280;62384;53.600;10.040;2023-04-04T12:56:34;76768.06;;;12.99
74043;BMP280;62384;53.600;10.040;2023-04-04T12:59:02;76837.75;;;13.34
74043;BMP280;62384;53.600;10.040;2023-04-04T13:01:31;76860.56;;;13.45
74043;BMP280;62384;53.600;10.040;2023-04-04T13:04:01;76813.03;;;13.20
74043;BMP280;62384;53.600;10.040;2023-04-04T13:06:30;76862.72;;;13.58
74043;BMP280;62384;53.600;10.040;2023-04-04T13:08:56;76725.06;;;12.57
74043;BMP280;62384;53.600;10.040;2023-04-04T13:11:22;76736.94;;;12.65
74043;BMP280;62384;53.600;10.040;2023-04-04T13:13:59;76699.16;;;12.34
74043;BMP280;62384;53.600;10.040;2023-04-04T13:16:33;76736.03;;;12.48
74043;BMP280;62384;53.600;10.040;2023-04-04T13:19:02;76774.47;;;12.86
74043;BMP280;62384;53.600;10.040;2023-04-04T13:21:27;76800.91;;;13.02
74043;BMP280;62384;53.600;10.040;2023-04-04T13:23:53;76810.22;;;13.24
74043;BMP280;62384;53.600;10.040;2023-04-04T13:26:19;76928.69;;;13.93
74043;BMP280;62384;53.600;10.040;2023-04-04T13:28:45;76904.94;;;13.91
74043;BMP280;62384;53.600;10.040;2023-04-04T13:31:12;77004.91;;;14.55
74043;BMP280;62384;53.600;10.040;2023-04-04T13:33:39;76935.59;;;13.99
74043;BMP280;62384;53.600;10.040;2023-04-04T13:36:05;76917.03;;;13.94
74043;BMP280;62384;53.600;10.040;2023-04-04T13:38:31;76855.63;;;13.50
74043;BMP280;62384;53.600;10.040;2023-04-04T13:40:57;76910.81;;;14.17
74043;BMP280;62384;53.600;10.040;2023-04-04T13:43:23;76916.47;;;14.01
74043;BMP280;62384;53.600;10.040;2023-04-04T13:45:49;76948.94;;;14.31
74043;BMP280;62384;53.600;10.040;2023-04-04T13:48:16;76886.41;;;13.86
74043;BMP280;62384;53.600;10.040;2023-04-04T13:50:42;76831.53;;;13.43
74043;BMP280;62384;53.600;10.040;2023-04-04T13:53:10;76779.84;;;12.93
74043;BMP280;62384;53.600;10.040;2023-04-04T13:55:36;76778.13;;;12.91
74043;BMP280;62384;53.600;10.040;2023-04-04T13:58:03;76722.69;;;12.48
74043;BMP280;62384;53.600;10.040;2023-04-04T14:00:28;76770.16;;;12.66
74043;BMP280;62384;53.600;10.040;2023-04-04T14:02:54;76783.31;;;12.96
74043;BMP280;62384;53.600;10.040;2023-04-04T14:05:21;76770.59;;;12.78
74043;BMP280;62384;53.600;10.040;2023-04-04T14:07:47;76785.47;;;13.03
74043;BMP280;62384;53.600;10.040;2023-04-04T14:10:12;76786.16;;;12.91
74043;BMP280;62384;53.600;10.040;2023-04-04T14:12:37;76924.81;;;13.85
74043;BMP280;62384;53.600;10.040;2023-04-04T14:15:04;77016.13;;;14.81
74043;BMP280;62384;53.600;10.040;2023-04-04T14:17:34;76969.47;;;14.47
74043;BMP280;62384;53.600;10.040;2023-04-04T14:20:00;77017.28;;;14.82
74043;BMP280;62384;53.600;10.040;2023-04-04T14:22:25;77079.22;;;15.05